Portada
METAR-TAF:

METAR-TAF

Aeropuertos :

Jijel, Argelia

latitud: 36-53N, longitud: 005-49E, altitud: 2 m

METAR: falta

Hora: 00:32 (23:32 UTC)

Pronóstico

El informe se hizo hace 6 horas y 32 minutos, a las 17:00 UTC
Pronóstico válido del 25 a las 18 UTC al 26 a las 18 UTC
Viento 12 kt del norte-noroeste
Visibilidad 10 km o más
sin nubes por debajo de 1500 m y sin presencia de cumulonimbus.
Evolucionando progresivamente
del 25 a las 20 UTC al 25 a las 22 UTC
Viento 8 kt del sur-suroeste
Probabilidad 30% :
Temporalmente
del 26 a las 01 UTC al 26 a las 08 UTC
Visibilidad: 2000 m
Cielo nuboso a una altura de 800 ft
neblina
Evolucionando progresivamente
del 26 a las 10 UTC al 26 a las 12 UTC
Viento 12 kt del noroeste

TAF: DAAV 251700Z 2518/2618 34012KT CAVOK BECMG 2520/2522 20008KT PROB30 TEMPO 2601/2608 2000 BR BKN008 BECMG 2610/2612 32012KT

Observaciones y pronósticos meteorológicos de más de 4000 aeropuertos (mensajes METAR y TAF).

Los puntos amarillos y rojos representan las estaciones disponibles.

Ponga el ratón en el punto deseado para ver el nombre de la estación.

Haga clic para ver las observaciones y los pronósticos meteorológicos.

Para cambiar el mapa : haga clic en los botones verdes con una cruz de color negro para hacer un zoom, en el botón verde con un guión para alejar o en las flechas verdes para mapas adyacentes.


METAR-TAF: